sensor_id;sensor_type;location;lat;lon;timestamp;temperature;humidity
27114;DHT22;14648;49.730;8.614;2024-01-15T00:02:18;-1.20;56.60
27114;DHT22;14648;49.730;8.614;2024-01-15T00:04:44;-1.30;56.70
27114;DHT22;14648;49.730;8.614;2024-01-15T00:07:10;-1.30;56.80
27114;DHT22;14648;49.730;8.614;2024-01-15T00:09:35;-1.30;56.80
27114;DHT22;14648;49.730;8.614;2024-01-15T00:12:02;-1.20;56.70
27114;DHT22;14648;49.730;8.614;2024-01-15T00:14:28;-1.20;56.70
27114;DHT22;14648;49.730;8.614;2024-01-15T00:16:54;-1.20;56.70
27114;DHT22;14648;49.730;8.614;2024-01-15T00:19:23;-1.20;56.70
27114;DHT22;14648;49.730;8.614;2024-01-15T00:21:49;-1.20;56.70
27114;DHT22;14648;49.730;8.614;2024-01-15T00:24:15;-1.20;56.70
27114;DHT22;14648;49.730;8.614;2024-01-15T00:26:41;-1.20;56.60
27114;DHT22;14648;49.730;8.614;2024-01-15T00:29:07;-1.20;56.70
27114;DHT22;14648;49.730;8.614;2024-01-15T00:31:34;-1.20;56.70
27114;DHT22;14648;49.730;8.614;2024-01-15T00:34:00;-1.20;56.70
27114;DHT22;14648;49.730;8.614;2024-01-15T00:36:26;-1.30;56.80
27114;DHT22;14648;49.730;8.614;2024-01-15T00:38:52;-1.20;56.80
27114;DHT22;14648;49.730;8.614;2024-01-15T00:41:18;-1.30;56.80
27114;DHT22;14648;49.730;8.614;2024-01-15T00:43:47;-1.20;56.90
27114;DHT22;14648;49.730;8.614;2024-01-15T00:46:15;-1.30;57.60
27114;DHT22;14648;49.730;8.614;2024-01-15T00:48:41;-1.30;57.00
27114;DHT22;14648;49.730;8.614;2024-01-15T00:51:07;-1.30;57.10
27114;DHT22;14648;49.730;8.614;2024-01-15T00:53:33;-1.30;57.00
27114;DHT22;14648;49.730;8.614;2024-01-15T00:55:58;-1.30;57.00
27114;DHT22;14648;49.730;8.614;2024-01-15T00:58:25;-1.30;57.10
27114;DHT22;14648;49.730;8.614;2024-01-15T01:00:51;-1.30;57.10
27114;DHT22;14648;49.730;8.614;2024-01-15T01:03:16;-1.30;57.10
27114;DHT22;14648;49.730;8.614;2024-01-15T01:05:42;-1.30;57.10
27114;DHT22;14648;49.730;8.614;2024-01-15T01:08:09;-1.30;57.10
27114;DHT22;14648;49.730;8.614;2024-01-15T01:10:35;-1.30;57.20
27114;DHT22;14648;49.730;8.614;2024-01-15T01:13:00;-1.30;57.10
27114;DHT22;14648;49.730;8.614;2024-01-15T01:15:26;-1.30;57.10
27114;DHT22;14648;49.730;8.614;2024-01-15T01:17:52;-1.20;57.20
27114;DHT22;14648;49.730;8.614;2024-01-15T01:20:18;-1.20;57.20
27114;DHT22;14648;49.730;8.614;2024-01-15T01:22:44;-1.20;57.20
27114;DHT22;14648;49.730;8.614;2024-01-15T01:25:09;-1.20;57.20
27114;DHT22;14648;49.730;8.614;2024-01-15T01:27:35;-1.20;57.10
27114;DHT22;14648;49.730;8.614;2024-01-15T01:30:01;-1.20;57.10
27114;DHT22;14648;49.730;8.614;2024-01-15T01:32:27;-1.20;57.20
27114;DHT22;14648;49.730;8.614;2024-01-15T01:34:54;-1.20;57.10
27114;DHT22;14648;49.730;8.614;2024-01-15T01:37:19;-1.20;57.20
27114;DHT22;14648;49.730;8.614;2024-01-15T01:39:45;-1.20;57.10
27114;DHT22;14648;49.730;8.614;2024-01-15T01:42:11;-1.20;57.10
27114;DHT22;14648;49.730;8.614;2024-01-15T01:44:38;-1.20;57.00
27114;DHT22;14648;49.730;8.614;2024-01-15T01:47:04;-1.20;57.00
27114;DHT22;14648;49.730;8.614;2024-01-15T01:49:31;-1.20;57.00
27114;DHT22;14648;49.730;8.614;2024-01-15T01:51:58;-1.20;57.00
27114;DHT22;14648;49.730;8.614;2024-01-15T01:54:28;-1.20;57.10
27114;DHT22;14648;49.730;8.614;2024-01-15T01:56:55;-1.10;57.20
27114;DHT22;14648;49.730;8.614;2024-01-15T01:59:22;-1.10;57.10
27114;DHT22;14648;49.730;8.614;2024-01-15T02:01:49;-1.10;57.10
27114;DHT22;14648;49.730;8.614;2024-01-15T02:04:16;-1.10;57.20
27114;DHT22;14648;49.730;8.614;2024-01-15T02:06:42;-1.10;57.20
27114;DHT22;14648;49.730;8.614;2024-01-15T02:09:08;-1.00;57.20
27114;DHT22;14648;49.730;8.614;2024-01-15T02:11:35;-1.10;57.20
27114;DHT22;14648;49.730;8.614;2024-01-15T02:14:02;-1.00;57.30
27114;DHT22;14648;49.730;8.614;2024-01-15T02:16:28;-1.00;57.30
27114;DHT22;14648;49.730;8.614;2024-01-15T02:18:54;-1.00;58.00
27114;DHT22;14648;49.730;8.614;2024-01-15T02:21:19;-0.90;57.40
27114;DHT22;14648;49.730;8.614;2024-01-15T02:23:45;-0.90;57.40
27114;DHT22;14648;49.730;8.614;2024-01-15T02:26:11;-0.90;57.30
27114;DHT22;14648;49.730;8.614;2024-01-15T02:28:37;-0.90;57.30
27114;DHT22;14648;49.730;8.614;2024-01-15T02:31:03;-0.90;57.30
27114;DHT22;14648;49.730;8.614;2024-01-15T02:33:29;-0.90;57.40
27114;DHT22;14648;49.730;8.614;2024-01-15T02:35:54;-0.90;57.40
27114;DHT22;14648;49.730;8.614;2024-01-15T02:38:20;-0.80;57.40
27114;DHT22;14648;49.730;8.614;2024-01-15T02:40:46;-0.90;57.40
27114;DHT22;14648;49.730;8.614;2024-01-15T02:43:12;-0.80;57.50
27114;DHT22;14648;49.730;8.614;2024-01-15T02:45:39;-0.90;57.50
27114;DHT22;14648;49.730;8.614;2024-01-15T02:48:05;-0.90;57.50
27114;DHT22;14648;49.730;8.614;2024-01-15T02:50:31;-0.80;57.50
27114;DHT22;14648;49.730;8.614;2024-01-15T02:52:56;-0.80;57.50
27114;DHT22;14648;49.730;8.614;2024-01-15T02:55:22;-0.80;58.20
27114;DHT22;14648;49.730;8.614;2024-01-15T02:57:48;-0.80;58.20
27114;DHT22;14648;49.730;8.614;2024-01-15T03:00:14;-0.80;57.50
27114;DHT22;14648;49.730;8.614;2024-01-15T03:02:40;-0.80;57.60
27114;DHT22;14648;49.730;8.614;2024-01-15T03:05:09;-0.80;57.50
27114;DHT22;14648;49.730;8.614;2024-01-15T03:07:35;-0.80;57.50
27114;DHT22;14648;49.730;8.614;2024-01-15T03:10:01;-0.80;57.50
27114;DHT22;14648;49.730;8.614;2024-01-15T03:12:27;-0.80;57.60
27114;DHT22;14648;49.730;8.614;2024-01-15T03:14:52;-0.70;57.70
27114;DHT22;14648;49.730;8.614;2024-01-15T03:17:18;-0.70;57.70
27114;DHT22;14648;49.730;8.614;2024-01-15T03:19:44;-0.70;57.70
27114;DHT22;14648;49.730;8.614;2024-01-15T03:22:09;-0.70;57.70
27114;DHT22;14648;49.730;8.614;2024-01-15T03:24:35;-0.70;57.70
27114;DHT22;14648;49.730;8.614;2024-01-15T03:27:01;-0.70;57.70
27114;DHT22;14648;49.730;8.614;2024-01-15T03:29:27;-0.70;57.70
27114;DHT22;14648;49.730;8.614;2024-01-15T03:31:53;-0.70;57.70
27114;DHT22;14648;49.730;8.614;2024-01-15T03:34:19;-0.70;57.70
27114;DHT22;14648;49.730;8.614;2024-01-15T03:36:44;-0.60;57.70
27114;DHT22;14648;49.730;8.614;2024-01-15T03:39:10;-0.60;57.80
27114;DHT22;14648;49.730;8.614;2024-01-15T03:41:36;-0.60;57.80
27114;DHT22;14648;49.730;8.614;2024-01-15T03:44:02;-0.60;57.80
27114;DHT22;14648;49.730;8.614;2024-01-15T03:46:28;-0.60;57.70
27114;DHT22;14648;49.730;8.614;2024-01-15T03:48:53;-0.60;57.70
27114;DHT22;14648;49.730;8.614;2024-01-15T03:51:19;-0.60;57.70
27114;DHT22;14648;49.730;8.614;2024-01-15T03:53:46;-0.60;57.70
27114;DHT22;14648;49.730;8.614;2024-01-15T03:56:12;-0.60;57.90
27114;DHT22;14648;49.730;8.614;2024-01-15T03:58:38;-0.60;57.70
27114;DHT22;14648;49.730;8.614;2024-01-15T04:01:07;-0.60;57.70
27114;DHT22;14648;49.730;8.614;2024-01-15T04:03:34;-0.60;57.60
27114;DHT22;14648;49.730;8.614;2024-01-15T04:05:59;-0.60;57.60
27114;DHT22;14648;49.730;8.614;2024-01-15T04:08:25;-0.60;57.60
27114;DHT22;14648;49.730;8.614;2024-01-15T04:10:51;-0.60;57.60
27114;DHT22;14648;49.730;8.614;2024-01-15T04:13:16;-0.60;57.60
27114;DHT22;14648;49.730;8.614;2024-01-15T04:15:42;-0.60;57.50
27114;DHT22;14648;49.730;8.614;2024-01-15T04:18:08;-0.60;57.50
27114;DHT22;14648;49.730;8.614;2024-01-15T04:20:34;-0.60;57.60
27114;DHT22;14648;49.730;8.614;2024-01-15T04:22:59;-0.50;57.70
27114;DHT22;14648;49.730;8.614;2024-01-15T04:25:25;-0.50;57.60
27114;DHT22;14648;49.730;8.614;2024-01-15T04:27:51;-0.50;57.60
27114;DHT22;14648;49.730;8.614;2024-01-15T04:30:16;-0.50;57.60
27114;DHT22;14648;49.730;8.614;2024-01-15T04:32:42;-0.50;57.70
27114;DHT22;14648;49.730;8.614;2024-01-15T04:35:08;-0.50;57.70
27114;DHT22;14648;49.730;8.614;2024-01-15T04:37:34;-0.60;57.60
27114;DHT22;14648;49.730;8.614;2024-01-15T04:39:59;-0.60;57.60
27114;DHT22;14648;49.730;8.614;2024-01-15T04:42:25;-0.60;57.70
27114;DHT22;14648;49.730;8.614;2024-01-15T04:44:51;-0.60;57.70
27114;DHT22;14648;49.730;8.614;2024-01-15T04:47:17;-0.60;57.70
27114;DHT22;14648;49.730;8.614;2024-01-15T04:49:43;-0.50;57.80
27114;DHT22;14648;49.730;8.614;2024-01-15T04:52:08;-0.60;57.70
27114;DHT22;14648;49.730;8.614;2024-01-15T04:54:38;-0.60;57.70
27114;DHT22;14648;49.730;8.614;2024-01-15T04:57:03;-0.60;57.70
27114;DHT22;14648;49.730;8.614;2024-01-15T04:59:29;-0.50;57.70
27114;DHT22;14648;49.730;8.614;2024-01-15T05:01:55;-0.50;57.70
27114;DHT22;14648;49.730;8.614;2024-01-15T05:04:21;-0.50;57.70
27114;DHT22;14648;49.730;8.614;2024-01-15T05:06:47;-0.40;57.70
27114;DHT22;14648;49.730;8.614;2024-01-15T05:09:13;-0.50;57.70
27114;DHT22;14648;49.730;8.614;2024-01-15T05:11:39;-0.40;57.80
27114;DHT22;14648;49.730;8.614;2024-01-15T05:14:05;-0.50;57.80
27114;DHT22;14648;49.730;8.614;2024-01-15T05:16:31;-0.40;57.80
27114;DHT22;14648;49.730;8.614;2024-01-15T05:18:56;-0.40;57.80
27114;DHT22;14648;49.730;8.614;2024-01-15T05:21:22;-0.40;57.80
27114;DHT22;14648;49.730;8.614;2024-01-15T05:23:48;-0.40;57.80
27114;DHT22;14648;49.730;8.614;2024-01-15T05:26:13;-0.40;57.80
27114;DHT22;14648;49.730;8.614;2024-01-15T05:28:41;-0.40;57.80
27114;DHT22;14648;49.730;8.614;2024-01-15T05:31:08;-0.40;57.80
27114;DHT22;14648;49.730;8.614;2024-01-15T05:33:34;-0.40;57.80
27114;DHT22;14648;49.730;8.614;2024-01-15T05:36:00;-0.40;57.80
27114;DHT22;14648;49.730;8.614;2024-01-15T05:38:27;-0.40;57.80
27114;DHT22;14648;49.730;8.614;2024-01-15T05:40:53;-0.40;57.80
27114;DHT22;14648;49.730;8.614;2024-01-15T05:43:19;-0.40;57.70
27114;DHT22;14648;49.730;8.614;2024-01-15T05:45:45;-0.40;57.70
27114;DHT22;14648;49.730;8.614;2024-01-15T05:48:11;-0.30;57.80
27114;DHT22;14648;49.730;8.614;2024-01-15T05:50:38;-0.40;57.70
27114;DHT22;14648;49.730;8.614;2024-01-15T05:53:03;-0.30;57.80
27114;DHT22;14648;49.730;8.614;2024-01-15T05:55:29;-0.40;57.90
27114;DHT22;14648;49.730;8.614;2024-01-15T05:57:55;-0.30;58.10
27114;DHT22;14648;49.730;8.614;2024-01-15T06:00:21;-0.30;58.10
27114;DHT22;14648;49.730;8.614;2024-01-15T06:02:47;-0.30;58.10
27114;DHT22;14648;49.730;8.614;2024-01-15T06:05:13;-0.30;58.10
27114;DHT22;14648;49.730;8.614;2024-01-15T06:07:38;-0.40;58.10
27114;DHT22;14648;49.730;8.614;2024-01-15T06:10:04;-0.30;58.20
27114;DHT22;14648;49.730;8.614;2024-01-15T06:12:31;-0.30;58.20
27114;DHT22;14648;49.730;8.614;2024-01-15T06:14:57;-0.30;58.30
27114;DHT22;14648;49.730;8.614;2024-01-15T06:17:23;-0.30;58.30
27114;DHT22;14648;49.730;8.614;2024-01-15T06:19:49;-0.30;58.30
27114;DHT22;14648;49.730;8.614;2024-01-15T06:22:15;-0.30;58.30
27114;DHT22;14648;49.730;8.614;2024-01-15T06:24:41;-0.30;58.30
27114;DHT22;14648;49.730;8.614;2024-01-15T06:27:06;-0.20;58.20
27114;DHT22;14648;49.730;8.614;2024-01-15T06:29:32;-0.20;58.20
27114;DHT22;14648;49.730;8.614;2024-01-15T06:31:58;-0.20;58.10
27114;DHT22;14648;49.730;8.614;2024-01-15T06:34:24;-0.20;58.10
27114;DHT22;14648;49.730;8.614;2024-01-15T06:36:49;-0.20;58.10
27114;DHT22;14648;49.730;8.614;2024-01-15T06:39:15;-0.20;58.00
27114;DHT22;14648;49.730;8.614;2024-01-15T06:41:41;-0.20;58.10
27114;DHT22;14648;49.730;8.614;2024-01-15T06:44:12;-0.20;58.10
27114;DHT22;14648;49.730;8.614;2024-01-15T06:46:44;-0.20;58.10
27114;DHT22;14648;49.730;8.614;2024-01-15T06:49:11;-0.10;58.10
27114;DHT22;14648;49.730;8.614;2024-01-15T06:51:37;-0.10;58.10
27114;DHT22;14648;49.730;8.614;2024-01-15T06:54:03;-0.20;58.00
27114;DHT22;14648;49.730;8.614;2024-01-15T06:56:29;-0.10;58.10
27114;DHT22;14648;49.730;8.614;2024-01-15T06:58:56;-0.10;58.00
27114;DHT22;14648;49.730;8.614;2024-01-15T07:01:22;-0.10;58.00
27114;DHT22;14648;49.730;8.614;2024-01-15T07:03:48;-0.10;58.10
27114;DHT22;14648;49.730;8.614;2024-01-15T07:06:13;-0.10;58.10
27114;DHT22;14648;49.730;8.614;2024-01-15T07:08:40;-0.10;58.10
27114;DHT22;14648;49.730;8.614;2024-01-15T07:11:06;0.00;58.10
27114;DHT22;14648;49.730;8.614;2024-01-15T07:13:32;0.00;58.10
27114;DHT22;14648;49.730;8.614;2024-01-15T07:15:58;0.00;58.10
27114;DHT22;14648;49.730;8.614;2024-01-15T07:18:24;0.10;58.10
27114;DHT22;14648;49.730;8.614;2024-01-15T07:20:50;0.00;58.00
27114;DHT22;14648;49.730;8.614;2024-01-15T07:23:16;0.10;58.10
27114;DHT22;14648;49.730;8.614;2024-01-15T07:25:42;0.10;58.10
27114;DHT22;14648;49.730;8.614;2024-01-15T07:28:08;0.10;58.00
27114;DHT22;14648;49.730;8.614;2024-01-15T07:30:34;0.10;58.10
27114;DHT22;14648;49.730;8.614;2024-01-15T07:33:00;0.10;58.10
27114;DHT22;14648;49.730;8.614;2024-01-15T07:35:26;0.10;58.10
27114;DHT22;14648;49.730;8.614;2024-01-15T07:37:52;0.10;58.10
27114;DHT22;14648;49.730;8.614;2024-01-15T07:40:18;0.20;58.20
27114;DHT22;14648;49.730;8.614;2024-01-15T07:42:43;0.10;58.20
27114;DHT22;14648;49.730;8.614;2024-01-15T07:45:10;0.10;58.30
27114;DHT22;14648;49.730;8.614;2024-01-15T07:47:36;0.10;58.50
27114;DHT22;14648;49.730;8.614;2024-01-15T07:50:02;0.20;58.30
27114;DHT22;14648;49.730;8.614;2024-01-15T07:52:30;0.20;58.40
27114;DHT22;14648;49.730;8.614;2024-01-15T07:54:56;0.20;58.40
27114;DHT22;14648;49.730;8.614;2024-01-15T07:57:22;0.20;58.40
27114;DHT22;14648;49.730;8.614;2024-01-15T07:59:48;0.20;58.30
27114;DHT22;14648;49.730;8.614;2024-01-15T08:02:15;0.20;58.30
27114;DHT22;14648;49.730;8.614;2024-01-15T08:04:40;0.20;58.30
27114;DHT22;14648;49.730;8.614;2024-01-15T08:07:06;0.30;58.40
27114;DHT22;14648;49.730;8.614;2024-01-15T08:09:34;0.30;58.40
27114;DHT22;14648;49.730;8.614;2024-01-15T08:12:00;0.30;58.40
27114;DHT22;14648;49.730;8.614;2024-01-15T08:14:26;0.30;58.40
27114;DHT22;14648;49.730;8.614;2024-01-15T08:16:52;0.30;58.40
27114;DHT22;14648;49.730;8.614;2024-01-15T08:19:17;0.30;58.40
27114;DHT22;14648;49.730;8.614;2024-01-15T08:21:45;0.30;58.50
27114;DHT22;14648;49.730;8.614;2024-01-15T08:24:11;0.40;58.50
27114;DHT22;14648;49.730;8.614;2024-01-15T08:26:37;0.40;58.50
27114;DHT22;14648;49.730;8.614;2024-01-15T08:29:02;0.40;58.60
27114;DHT22;14648;49.730;8.614;2024-01-15T08:31:28;0.40;58.60
27114;DHT22;14648;49.730;8.614;2024-01-15T08:33:54;0.40;58.60
27114;DHT22;14648;49.730;8.614;2024-01-15T08:36:21;0.50;58.70
27114;DHT22;14648;49.730;8.614;2024-01-15T08:38:47;0.50;58.70
27114;DHT22;14648;49.730;8.614;2024-01-15T08:41:13;0.50;58.70
27114;DHT22;14648;49.730;8.614;2024-01-15T08:43:39;0.50;58.70
27114;DHT22;14648;49.730;8.614;2024-01-15T08:46:05;0.50;58.80
27114;DHT22;14648;49.730;8.614;2024-01-15T08:48:31;0.60;58.80
27114;DHT22;14648;49.730;8.614;2024-01-15T08:50:57;0.60;58.80
27114;DHT22;14648;49.730;8.614;2024-01-15T08:53:23;0.60;58.90
27114;DHT22;14648;49.730;8.614;2024-01-15T08:55:49;0.60;58.70
27114;DHT22;14648;49.730;8.614;2024-01-15T08:58:15;0.70;58.90
27114;DHT22;14648;49.730;8.614;2024-01-15T09:00:40;0.70;58.90
27114;DHT22;14648;49.730;8.614;2024-01-15T09:03:06;0.70;58.90
27114;DHT22;14648;49.730;8.614;2024-01-15T09:05:34;0.70;58.90
27114;DHT22;14648;49.730;8.614;2024-01-15T09:08:00;0.70;59.00
27114;DHT22;14648;49.730;8.614;2024-01-15T09:10:26;0.70;59.70
27114;DHT22;14648;49.730;8.614;2024-01-15T09:12:52;0.70;59.00
27114;DHT22;14648;49.730;8.614;2024-01-15T09:15:17;0.70;59.10
27114;DHT22;14648;49.730;8.614;2024-01-15T09:17:43;0.70;59.10
27114;DHT22;14648;49.730;8.614;2024-01-15T09:20:10;0.70;59.00
27114;DHT22;14648;49.730;8.614;2024-01-15T09:22:38;0.70;59.10
27114;DHT22;14648;49.730;8.614;2024-01-15T09:25:07;0.70;59.20
27114;DHT22;14648;49.730;8.614;2024-01-15T09:27:35;0.80;59.30
27114;DHT22;14648;49.730;8.614;2024-01-15T09:30:02;0.80;59.20
27114;DHT22;14648;49.730;8.614;2024-01-15T09:32:28;0.80;59.10
27114;DHT22;14648;49.730;8.614;2024-01-15T09:34:54;0.80;59.10
27114;DHT22;14648;49.730;8.614;2024-01-15T09:37:21;0.80;59.10
27114;DHT22;14648;49.730;8.614;2024-01-15T09:39:46;0.80;59.20
27114;DHT22;14648;49.730;8.614;2024-01-15T09:42:13;0.80;59.30
27114;DHT22;14648;49.730;8.614;2024-01-15T09:44:39;0.90;59.40
27114;DHT22;14648;49.730;8.614;2024-01-15T09:47:06;0.90;59.50
27114;DHT22;14648;49.730;8.614;2024-01-15T09:49:32;0.90;59.20
27114;DHT22;14648;49.730;8.614;2024-01-15T09:51:58;0.90;59.30
27114;DHT22;14648;49.730;8.614;2024-01-15T09:54:24;0.90;59.30
27114;DHT22;14648;49.730;8.614;2024-01-15T09:56:50;0.90;59.40
27114;DHT22;14648;49.730;8.614;2024-01-15T09:59:16;0.90;59.40
27114;DHT22;14648;49.730;8.614;2024-01-15T10:01:44;0.90;59.30
27114;DHT22;14648;49.730;8.614;2024-01-15T10:04:13;0.90;59.30
27114;DHT22;14648;49.730;8.614;2024-01-15T10:06:43;1.00;59.30
27114;DHT22;14648;49.730;8.614;2024-01-15T10:09:13;0.90;59.30
27114;DHT22;14648;49.730;8.614;2024-01-15T10:11:43;0.90;59.30
27114;DHT22;14648;49.730;8.614;2024-01-15T10:14:10;1.00;59.30
27114;DHT22;14648;49.730;8.614;2024-01-15T10:16:42;1.00;59.30
27114;DHT22;14648;49.730;8.614;2024-01-15T10:19:11;1.00;59.30
27114;DHT22;14648;49.730;8.614;2024-01-15T10:21:37;1.10;59.50
27114;DHT22;14648;49.730;8.614;2024-01-15T10:24:04;1.10;59.40
27114;DHT22;14648;49.730;8.614;2024-01-15T10:26:31;1.10;59.40
27114;DHT22;14648;49.730;8.614;2024-01-15T10:29:00;1.10;59.40
27114;DHT22;14648;49.730;8.614;2024-01-15T10:31:27;1.10;59.30
27114;DHT22;14648;49.730;8.614;2024-01-15T10:33:53;1.10;59.40
27114;DHT22;14648;49.730;8.614;2024-01-15T10:36:19;1.10;59.40
27114;DHT22;14648;49.730;8.614;2024-01-15T10:38:45;1.10;59.50
27114;DHT22;14648;49.730;8.614;2024-01-15T10:41:12;1.20;59.40
27114;DHT22;14648;49.730;8.614;2024-01-15T10:43:37;1.20;59.40
27114;DHT22;14648;49.730;8.614;2024-01-15T10:46:03;1.20;59.40
27114;DHT22;14648;49.730;8.614;2024-01-15T10:48:30;1.20;59.30
27114;DHT22;14648;49.730;8.614;2024-01-15T10:50:59;1.20;59.30
27114;DHT22;14648;49.730;8.614;2024-01-15T10:53:25;1.20;59.30
27114;DHT22;14648;49.730;8.614;2024-01-15T10:55:52;1.20;59.40
27114;DHT22;14648;49.730;8.614;2024-01-15T10:58:18;1.20;59.50
27114;DHT22;14648;49.730;8.614;2024-01-15T11:00:49;1.20;59.40
27114;DHT22;14648;49.730;8.614;2024-01-15T11:03:15;1.30;59.60
27114;DHT22;14648;49.730;8.614;2024-01-15T11:05:42;1.30;59.60
27114;DHT22;14648;49.730;8.614;2024-01-15T11:08:09;1.30;59.50
27114;DHT22;14648;49.730;8.614;2024-01-15T11:10:46;1.30;59.60
27114;DHT22;14648;49.730;8.614;2024-01-15T11:16:04;1.40;59.50
27114;DHT22;14648;49.730;8.614;2024-01-15T11:18:40;1.40;59.50
27114;DHT22;14648;49.730;8.614;2024-01-15T11:23:43;1.40;59.40
27114;DHT22;14648;49.730;8.614;2024-01-15T11:26:48;1.40;59.40
27114;DHT22;14648;49.730;8.614;2024-01-15T11:29:33;1.40;59.40
27114;DHT22;14648;49.730;8.614;2024-01-15T11:32:05;1.50;59.50
27114;DHT22;14648;49.730;8.614;2024-01-15T11:34:50;1.50;59.40
27114;DHT22;14648;49.730;8.614;2024-01-15T11:37:25;1.50;59.50
27114;DHT22;14648;49.730;8.614;2024-01-15T11:39:52;1.60;59.50
27114;DHT22;14648;49.730;8.614;2024-01-15T11:42:25;1.60;59.50
27114;DHT22;14648;49.730;8.614;2024-01-15T11:44:51;1.60;59.40
27114;DHT22;14648;49.730;8.614;2024-01-15T11:47:33;1.60;59.40
27114;DHT22;14648;49.730;8.614;2024-01-15T11:50:05;1.60;59.50
27114;DHT22;14648;49.730;8.614;2024-01-15T11:55:19;1.70;59.60
27114;DHT22;14648;49.730;8.614;2024-01-15T11:57:52;1.70;59.50
27114;DHT22;14648;49.730;8.614;2024-01-15T12:00:21;1.70;60.00
27114;DHT22;14648;49.730;8.614;2024-01-15T12:02:48;1.80;59.20
27114;DHT22;14648;49.730;8.614;2024-01-15T12:05:16;1.80;59.20
27114;DHT22;14648;49.730;8.614;2024-01-15T12:07:44;1.90;59.30
27114;DHT22;14648;49.730;8.614;2024-01-15T12:10:11;1.90;59.10
27114;DHT22;14648;49.730;8.614;2024-01-15T12:15:32;1.90;59.00
27114;DHT22;14648;49.730;8.614;2024-01-15T12:18:00;2.00;59.10
27114;DHT22;14648;49.730;8.614;2024-01-15T12:20:31;2.10;59.20
27114;DHT22;14648;49.730;8.614;2024-01-15T12:22:58;2.10;59.10
27114;DHT22;14648;49.730;8.614;2024-01-15T12:25:25;2.20;59.00
27114;DHT22;14648;49.730;8.614;2024-01-15T12:27:54;2.30;59.00
27114;DHT22;14648;49.730;8.614;2024-01-15T12:30:20;2.40;58.90
27114;DHT22;14648;49.730;8.614;2024-01-15T12:32:46;2.40;58.80
27114;DHT22;14648;49.730;8.614;2024-01-15T12:35:13;2.50;59.00
27114;DHT22;14648;49.730;8.614;2024-01-15T12:37:40;2.50;58.90
27114;DHT22;14648;49.730;8.614;2024-01-15T12:40:07;2.50;59.00
27114;DHT22;14648;49.730;8.614;2024-01-15T12:42:36;2.50;59.00
27114;DHT22;14648;49.730;8.614;2024-01-15T12:45:03;2.50;59.10
27114;DHT22;14648;49.730;8.614;2024-01-15T12:47:33;2.50;59.80
27114;DHT22;14648;49.730;8.614;2024-01-15T12:49:59;2.50;59.10
27114;DHT22;14648;49.730;8.614;2024-01-15T12:52:27;2.50;59.20
27114;DHT22;14648;49.730;8.614;2024-01-15T12:54:53;2.50;59.20
27114;DHT22;14648;49.730;8.614;2024-01-15T12:57:19;2.40;59.10
27114;DHT22;14648;49.730;8.614;2024-01-15T12:59:45;2.40;59.10
27114;DHT22;14648;49.730;8.614;2024-01-15T13:02:12;2.40;59.10
27114;DHT22;14648;49.730;8.614;2024-01-15T13:04:38;2.40;59.10
27114;DHT22;14648;49.730;8.614;2024-01-15T13:07:05;2.30;59.10
27114;DHT22;14648;49.730;8.614;2024-01-15T13:09:32;2.40;59.20
27114;DHT22;14648;49.730;8.614;2024-01-15T13:11:59;2.30;59.30
27114;DHT22;14648;49.730;8.614;2024-01-15T13:14:24;2.40;59.20
27114;DHT22;14648;49.730;8.614;2024-01-15T13:16:51;2.40;59.30
27114;DHT22;14648;49.730;8.614;2024-01-15T13:19:17;2.40;59.30
27114;DHT22;14648;49.730;8.614;2024-01-15T13:21:44;2.40;59.30
27114;DHT22;14648;49.730;8.614;2024-01-15T13:24:10;2.40;59.30
27114;DHT22;14648;49.730;8.614;2024-01-15T13:26:36;2.40;59.20
27114;DHT22;14648;49.730;8.614;2024-01-15T13:29:06;2.40;59.20
27114;DHT22;14648;49.730;8.614;2024-01-15T13:31:32;2.40;59.20
27114;DHT22;14648;49.730;8.614;2024-01-15T13:33:58;2.40;59.20
27114;DHT22;14648;49.730;8.614;2024-01-15T13:36:27;2.40;59.20
27114;DHT22;14648;49.730;8.614;2024-01-15T13:38:53;2.40;59.30
27114;DHT22;14648;49.730;8.614;2024-01-15T13:41:20;2.50;59.30
27114;DHT22;14648;49.730;8.614;2024-01-15T13:43:55;2.40;59.20
27114;DHT22;14648;49.730;8.614;2024-01-15T13:46:23;2.40;59.20
27114;DHT22;14648;49.730;8.614;2024-01-15T13:48:52;2.40;59.20
27114;DHT22;14648;49.730;8.614;2024-01-15T13:51:18;2.50;59.30
27114;DHT22;14648;49.730;8.614;2024-01-15T13:53:44;2.50;59.20
27114;DHT22;14648;49.730;8.614;2024-01-15T13:56:10;2.50;59.30
27114;DHT22;14648;49.730;8.614;2024-01-15T13:58:36;2.50;59.20
27114;DHT22;14648;49.730;8.614;2024-01-15T14:01:03;2.50;59.30
27114;DHT22;14648;49.730;8.614;2024-01-15T14:03:32;2.50;59.30
27114;DHT22;14648;49.730;8.614;2024-01-15T14:05:58;2.50;59.30
27114;DHT22;14648;49.730;8.614;2024-01-15T14:08:24;2.50;59.40
27114;DHT22;14648;49.730;8.614;2024-01-15T14:10:56;2.50;59.40
27114;DHT22;14648;49.730;8.614;2024-01-15T14:13:23;2.50;59.40
27114;DHT22;14648;49.730;8.614;2024-01-15T14:15:48;2.50;59.30
27114;DHT22;14648;49.730;8.614;2024-01-15T14:18:16;2.50;59.30
27114;DHT22;14648;49.730;8.614;2024-01-15T14:20:43;2.60;59.20
27114;DHT22;14648;49.730;8.614;2024-01-15T14:23:09;2.60;59.20
27114;DHT22;14648;49.730;8.614;2024-01-15T14:25:34;2.60;59.20
27114;DHT22;14648;49.730;8.614;2024-01-15T14:28:00;2.60;59.20
27114;DHT22;14648;49.730;8.614;2024-01-15T14:30:26;2.70;59.30
27114;DHT22;14648;49.730;8.614;2024-01-15T14:32:52;2.70;59.40
27114;DHT22;14648;49.730;8.614;2024-01-15T14:35:18;2.90;59.50
27114;DHT22;14648;49.730;8.614;2024-01-15T14:37:43;3.00;59.40
27114;DHT22;14648;49.730;8.614;2024-01-15T14:40:10;3.10;60.00
27114;DHT22;14648;49.730;8.614;2024-01-15T14:42:36;3.10;59.30
27114;DHT22;14648;49.730;8.614;2024-01-15T14:45:03;3.20;59.20
27114;DHT22;14648;49.730;8.614;2024-01-15T14:47:34;3.20;59.30
27114;DHT22;14648;49.730;8.614;2024-01-15T14:50:00;3.30;59.30
27114;DHT22;14648;49.730;8.614;2024-01-15T14:52:26;3.30;60.10
27114;DHT22;14648;49.730;8.614;2024-01-15T14:54:52;3.30;59.30
27114;DHT22;14648;49.730;8.614;2024-01-15T14:57:18;3.30;59.30
27114;DHT22;14648;49.730;8.614;2024-01-15T14:59:43;3.30;59.20
27114;DHT22;14648;49.730;8.614;2024-01-15T15:02:09;3.40;59.00
27114;DHT22;14648;49.730;8.614;2024-01-15T15:04:35;3.40;59.00
27114;DHT22;14648;49.730;8.614;2024-01-15T15:07:01;3.40;59.00
27114;DHT22;14648;49.730;8.614;2024-01-15T15:09:28;3.40;59.00
27114;DHT22;14648;49.730;8.614;2024-01-15T15:11:54;3.40;58.90
27114;DHT22;14648;49.730;8.614;2024-01-15T15:14:20;3.40;58.90
27114;DHT22;14648;49.730;8.614;2024-01-15T15:16:45;3.50;58.90
27114;DHT22;14648;49.730;8.614;2024-01-15T15:19:27;3.50;58.90
27114;DHT22;14648;49.730;8.614;2024-01-15T15:22:02;3.60;58.80
27114;DHT22;14648;49.730;8.614;2024-01-15T15:24:58;3.60;58.70
27114;DHT22;14648;49.730;8.614;2024-01-15T15:27:27;3.60;58.70
27114;DHT22;14648;49.730;8.614;2024-01-15T15:29:56;3.60;58.70
27114;DHT22;14648;49.730;8.614;2024-01-15T15:32:23;3.60;58.70
27114;DHT22;14648;49.730;8.614;2024-01-15T15:35:03;3.60;58.70
27114;DHT22;14648;49.730;8.614;2024-01-15T15:37:32;3.50;58.60
27114;DHT22;14648;49.730;8.614;2024-01-15T15:40:06;3.50;58.60
27114;DHT22;14648;49.730;8.614;2024-01-15T15:42:36;3.40;58.60
27114;DHT22;14648;49.730;8.614;2024-01-15T15:45:03;3.40;58.60
27114;DHT22;14648;49.730;8.614;2024-01-15T15:47:29;3.40;58.70
27114;DHT22;14648;49.730;8.614;2024-01-15T15:49:55;3.30;58.50